^^
Grace C. Lehan Memorial Weather Station Historical Data
Daily Summary for January 14, 2021 Units:  Metric    English   Both
Daily Weekly Monthly Yearly
  High: Low: Average:
Temperature: 6.2 °C 1.4 °C 3.4 °C
Dew Point: 2 °C -1.9 °C 0.3 °C
Humidity: 90% 73% 80%
Wind Speed: 3.5km/h 0km/h 0.3km/h
Wind Gust: 14.5km/h - -
Wind- - SSW
Pressure: 1012.1 hPa 1008 hPa -
Precipitation: 0 mm    
 
 
Tabular Data for January 14, 2021
Time Temperature Dew Point Pressure Wind Wind Speed Wind Gust Humidity Rainfall Rate (Hourly) solar
00:04 1.8 °C -1.8 °C 1011.1 hPa Calm     77% 0 mm 0 W/m2
00:09 1.8 °C -1.8 °C 1011.1 hPa Calm     77% 0 mm 0 W/m2
00:14 1.8 °C -1.8 °C 1011.1 hPa Calm     77% 0 mm 0 W/m2
00:19 1.8 °C -1.8 °C 1010.7 hPa Calm     77% 0 mm 0 W/m2
00:24 1.8 °C -1.8 °C 1010.7 hPa Calm     77% 0 mm 0 W/m2
00:29 1.7 °C -1.9 °C 1010.7 hPa Calm     77% 0 mm 0 W/m2
00:34 1.7 °C -1.9 °C 1010.7 hPa Calm     77% 0 mm 0 W/m2
00:39 1.6 °C -1.9 °C 1010.7 hPa Calm     77.7% 0 mm 0 W/m2
00:44 1.6 °C -1.8 °C 1010.7 hPa Calm     78% 0 mm 0 W/m2
00:49 1.6 °C -1.8 °C 1010.7 hPa Calm     78% 0 mm 0 W/m2
00:54 1.6 °C -1.8 °C 1010.7 hPa Calm     78% 0 mm 0 W/m2
00:59 1.6 °C -1.9 °C 1010.7 hPa Calm     78% 0 mm 0 W/m2
01:04 1.5 °C -1.9 °C 1010.7 hPa Calm     78% 0 mm 0 W/m2
01:09 1.5 °C -1.9 °C 1010.7 hPa Calm     78% 0 mm 0 W/m2
01:13 1.5 °C -1.9 °C 1010.7 hPa Calm     78% 0 mm 0 W/m2
01:19 1.4 °C -1.8 °C 1010.7 hPa Calm     79% 0 mm 0 W/m2
01:24 1.4 °C -1.8 °C 1010.7 hPa Calm     79% 0 mm 0 W/m2
01:29 1.4 °C -1.8 °C 1010.7 hPa Calm     79% 0 mm 0 W/m2
01:34 1.5 °C -1.8 °C 1010.7 hPa Calm     79% 0 mm 0 W/m2
01:39 1.6 °C -1.7 °C 1010.7 hPa Calm   1.6 km/h 79% 0 mm 0 W/m2
01:44 1.6 °C -1.7 °C 1010.7 hPa Calm   1.6 km/h 78.9% 0 mm 0 W/m2
01:49 1.7 °C -1.8 °C 1010.7 hPa Calm   1.6 km/h 78% 0 mm 0 W/m2
01:54 1.7 °C -1.7 °C 1010.7 hPa Calm   1.6 km/h 78% 0 mm 0 W/m2
01:59 1.7 °C -1.7 °C 1010.7 hPa Calm   1.6 km/h 78% 0 mm 0 W/m2
02:04 1.7 °C -1.7 °C 1011.1 hPa Calm   1.6 km/h 78% 0 mm 0 W/m2
02:09 1.6 °C -1.8 °C 1010.7 hPa Calm     78% 0 mm 0 W/m2
02:14 1.6 °C -1.8 °C 1010.7 hPa SW 0.2 km/h 3.2 km/h 78% 0 mm 0 W/m2
02:19 1.6 °C -1.8 °C 1010.7 hPa Calm   3.2 km/h 78% 0 mm 0 W/m2
02:24 1.6 °C -1.7 °C 1010.7 hPa Calm   3.2 km/h 78.9% 0 mm 0 W/m2
02:29 1.5 °C -1.7 °C 1010.7 hPa Calm   3.2 km/h 79% 0 mm 0 W/m2
02:34 1.4 °C -1.8 °C 1010.7 hPa Calm   3.2 km/h 79% 0 mm 0 W/m2
02:39 1.4 °C -1.8 °C 1010.7 hPa Calm     79% 0 mm 0 W/m2
02:44 1.4 °C -1.8 °C 1010.4 hPa Calm     79% 0 mm 0 W/m2
02:49 1.4 °C -1.8 °C 1010.4 hPa Calm     79% 0 mm 0 W/m2
02:54 1.5 °C -1.7 °C 1010.4 hPa Calm     79% 0 mm 0 W/m2
02:59 1.5 °C -1.7 °C 1010.4 hPa Calm     79% 0 mm 0 W/m2
03:04 1.6 °C -1.7 °C 1010 hPa Calm     79% 0 mm 0 W/m2
03:09 1.6 °C -1.7 °C 1010 hPa Calm     79% 0 mm 0 W/m2
03:14 1.7 °C -1.6 °C 1010 hPa Calm   1.6 km/h 79% 0 mm 0 W/m2
03:19 1.7 °C -1.5 °C 1010 hPa Calm   1.6 km/h 79% 0 mm 0 W/m2
03:24 1.8 °C -1.4 °C 1010 hPa Calm   1.6 km/h 79% 0 mm 0 W/m2
03:29 1.8 °C -1.5 °C 1010 hPa Calm   1.6 km/h 78.5% 0 mm 0 W/m2
03:34 1.9 °C -1.6 °C 1010 hPa Calm   1.6 km/h 78% 0 mm 0 W/m2
03:39 1.9 °C -1.5 °C 1009.7 hPa Calm     78% 0 mm 0 W/m2
03:44 1.9 °C -1.5 °C 1009.7 hPa Calm     78% 0 mm 0 W/m2
03:49 1.9 °C -1.5 °C 1009.7 hPa Calm     78% 0 mm 0 W/m2
03:54 1.9 °C -1.4 °C 1009.7 hPa Calm     78.4% 0 mm 0 W/m2
03:59 1.9 °C -1.3 °C 1009.7 hPa Calm     78.9% 0 mm 0 W/m2
04:04 2 °C -1.3 °C 1009.4 hPa Calm     79% 0 mm 0 W/m2
04:09 2 °C -1.3 °C 1009.4 hPa Calm     79% 0 mm 0 W/m2
04:14 2 °C -1.3 °C 1009.4 hPa Calm     79% 0 mm 0 W/m2
04:19 2 °C -1.3 °C 1009.4 hPa Calm     79% 0 mm 0 W/m2
04:24 2 °C -1.3 °C 1009.4 hPa Calm     79% 0 mm 0 W/m2
04:29 2 °C -1.3 °C 1009.4 hPa Calm     79% 0 mm 0 W/m2
04:34 2 °C -1.3 °C 1009.4 hPa Calm     79% 0 mm 0 W/m2
04:39 2 °C -1.3 °C 1009.4 hPa Calm     79% 0 mm 0 W/m2
04:44 2 °C -1.3 °C 1009.4 hPa Calm     79% 0 mm 0 W/m2
04:49 2 °C -1.3 °C 1009.4 hPa Calm     79% 0 mm 0 W/m2
04:54 2 °C -1.3 °C 1009.4 hPa Calm     79% 0 mm 0 W/m2
04:59 2 °C -1.3 °C 1009.4 hPa Calm     79% 0 mm 0 W/m2
05:04 1.9 °C -1.3 °C 1009.4 hPa Calm     79.1% 0 mm 0 W/m2
05:09 1.9 °C -1.2 °C 1009.4 hPa Calm     80% 0 mm 0 W/m2
05:14 1.9 °C -1.2 °C 1009.4 hPa Calm     80% 0 mm 0 W/m2
05:19 1.9 °C -1.2 °C 1009.4 hPa Calm     80% 0 mm 0 W/m2
05:24 1.9 °C -1.2 °C 1009.4 hPa Calm     80% 0 mm 0 W/m2
05:29 1.9 °C -1.2 °C 1009.4 hPa Calm     80% 0 mm 0 W/m2
05:34 1.8 °C -1.2 °C 1009.4 hPa Calm     80% 0 mm 0 W/m2
05:39 1.8 °C -1.2 °C 1009.4 hPa Calm     80% 0 mm 0 W/m2
05:44 1.8 °C -1.3 °C 1009.4 hPa Calm     80% 0 mm 0 W/m2
05:49 1.8 °C -1.3 °C 1009.7 hPa Calm     80% 0 mm 0 W/m2
05:54 1.8 °C -1.3 °C 1009.7 hPa Calm     80% 0 mm 0 W/m2
05:59 1.8 °C -1.1 °C 1009.7 hPa Calm     81% 0 mm 0 W/m2
06:04 1.8 °C -1.1 °C 1009.7 hPa Calm     81% 0 mm 0 W/m2
06:09 1.8 °C -1.1 °C 1009.7 hPa Calm     81% 0 mm 0 W/m2
06:14 1.8 °C -1.1 °C 1009.7 hPa Calm     81% 0 mm 0 W/m2
06:19 1.8 °C -1.1 °C 1010 hPa Calm     81% 0 mm 0 W/m2
06:24 1.8 °C -1.1 °C 1009.7 hPa Calm     81% 0 mm 0 W/m2
06:29 1.7 °C -1.2 °C 1010 hPa Calm     81% 0 mm 0 W/m2
06:34 1.7 °C -1.2 °C 1010 hPa Calm     81% 0 mm 0 W/m2
06:39 1.7 °C -1.2 °C 1010 hPa Calm     81% 0 mm 0 W/m2
06:44 1.7 °C -1.2 °C 1010 hPa Calm     81% 0 mm 0 W/m2
06:49 1.7 °C -1.2 °C 1010 hPa Calm     81% 0 mm 0 W/m2
06:54 1.7 °C -1.2 °C 1010 hPa Calm     81.3% 0 mm 0 W/m2
06:59 1.7 °C -1 °C 1010 hPa Calm     82% 0 mm 0 W/m2
07:04 1.7 °C -1 °C 1010 hPa Calm     82% 0 mm 0 W/m2
07:09 1.8 °C -1 °C 1010 hPa Calm     82% 0 mm 0 W/m2
07:14 1.8 °C -0.9 °C 1010.4 hPa Calm     82% 0 mm 0 W/m2
07:19 1.8 °C -0.9 °C 1010.4 hPa Calm     82% 0 mm 0 W/m2
07:24 1.8 °C -0.9 °C 1010.4 hPa Calm     82% 0 mm 0 W/m2
07:29 1.8 °C -0.9 °C 1010.7 hPa Calm     82% 0 mm 5 W/m2
07:34 1.8 °C -0.9 °C 1010.7 hPa Calm     82% 0 mm 5 W/m2
07:39 1.8 °C -0.9 °C 1010.7 hPa Calm     82% 0 mm 7 W/m2
07:44 1.8 °C -0.9 °C 1010.7 hPa Calm     82% 0 mm 9 W/m2
07:49 1.8 °C -0.9 °C 1010.7 hPa Calm     82% 0 mm 9 W/m2
07:54 1.8 °C -0.9 °C 1010.7 hPa Calm     82% 0 mm 11 W/m2
07:59 1.8 °C -0.9 °C 1010.7 hPa Calm     82% 0 mm 12 W/m2
08:04 1.9 °C -0.8 °C 1010.7 hPa Calm     82% 0 mm 14 W/m2
08:09 1.9 °C -0.8 °C 1010.7 hPa Calm     82% 0 mm 16 W/m2
08:14 1.9 °C -0.8 °C 1010.7 hPa Calm     82% 0 mm 18 W/m2
08:19 2 °C -0.7 °C 1010.7 hPa Calm     82.1% 0 mm 23 W/m2
08:24 2.1 °C -0.6 °C 1010.7 hPa Calm     82.8% 0 mm 26 W/m2
08:29 2.1 °C -0.4 °C 1010.7 hPa Calm     82.9% 0 mm 32 W/m2
08:34 2.2 °C -0.4 °C 1010.7 hPa Calm     82.8% 0 mm 40 W/m2
08:39 2.3 °C -0.4 °C 1010.7 hPa Calm     82.3% 0 mm 47 W/m2
08:44 2.3 °C -0.4 °C 1010.7 hPa Calm     82% 0 mm 53 W/m2
08:49 2.4 °C -0.3 °C 1010.7 hPa Calm     82.1% 0 mm 56 W/m2
08:54 2.5 °C -0.1 °C 1010.7 hPa Calm     83% 0 mm 63 W/m2
08:59 2.6 °C 0 °C 1010.7 hPa Calm     82.9% 0 mm 67 W/m2
09:04 2.8 °C 0 °C 1010.7 hPa Calm     82% 0 mm 72 W/m2
09:09 2.9 °C 0.1 °C 1010.7 hPa Calm     82% 0 mm 76 W/m2
09:14 3.1 °C 0.3 °C 1010.7 hPa Calm     82% 0 mm 84 W/m2
09:19 3.2 °C 0.3 °C 1010.7 hPa Calm     81.4% 0 mm 93 W/m2
09:24 3.3 °C 0.3 °C 1010.7 hPa Calm     81% 0 mm 100 W/m2
09:29 3.4 °C 0.4 °C 1010.7 hPa Calm     80.7% 0 mm 104 W/m2
09:34 3.5 °C 0.4 °C 1010.7 hPa Calm     80% 0 mm 105 W/m2
09:39 3.6 °C 0.4 °C 1010.4 hPa Calm     79.5% 0 mm 107 W/m2
09:44 3.7 °C 0.4 °C 1010.4 hPa Calm     79% 0 mm 111 W/m2
09:49 3.8 °C 0.5 °C 1010.7 hPa Calm     79% 0 mm 114 W/m2
09:54 3.9 °C 0.4 °C 1010.7 hPa Calm     78.4% 0 mm 116 W/m2
09:59 3.9 °C 0.4 °C 1010.4 hPa Calm     78% 0 mm 114 W/m2
10:04 4.1 °C 0.6 °C 1010.4 hPa Calm     78% 0 mm 118 W/m2
10:09 4.2 °C 0.7 °C 1010.4 hPa Calm     78% 0 mm 127 W/m2
10:14 4.3 °C 0.7 °C 1010.4 hPa Calm     77.4% 0 mm 132 W/m2
10:19 4.4 °C 0.8 °C 1010.4 hPa Calm     77% 0 mm 139 W/m2
10:24 4.6 °C 0.8 °C 1010.4 hPa Calm     76.5% 0 mm 148 W/m2
10:29 4.7 °C 0.8 °C 1010.4 hPa Calm     76% 0 mm 148 W/m2
10:34 4.8 °C 0.9 °C 1010 hPa Calm     76% 0 mm 144 W/m2
10:39 4.9 °C 0.9 °C 1010 hPa Calm     75.6% 0 mm 141 W/m2
10:44 5 °C 0.9 °C 1010 hPa Calm     75% 0 mm 134 W/m2
10:49 5.1 °C 0.8 °C 1010 hPa Calm     74% 0 mm 132 W/m2
10:54 5.1 °C 0.8 °C 1010 hPa Calm     74% 0 mm 130 W/m2
10:59 5.1 °C 0.9 °C 1010 hPa Calm   1.6 km/h 74.5% 0 mm 127 W/m2
11:04 5.1 °C 1 °C 1010 hPa Calm   1.6 km/h 75% 0 mm 120 W/m2
11:09 5.1 °C 0.9 °C 1010 hPa Calm     74.4% 0 mm 120 W/m2
11:14 5.1 °C 0.8 °C 1009.7 hPa SW 0.5 km/h 4.8 km/h 74% 0 mm 120 W/m2
11:19 5.1 °C 0.9 °C 1009.7 hPa Calm   4.8 km/h 74% 0 mm 120 W/m2
11:24 5.2 °C 0.9 °C 1009.7 hPa Calm   4.8 km/h 74% 0 mm 123 W/m2
11:29 5.2 °C 0.8 °C 1009.4 hPa Calm   4.8 km/h 73.5% 0 mm 128 W/m2
11:34 5.2 °C 0.8 °C 1009.4 hPa Calm   4.8 km/h 73.5% 0 mm 130 W/m2
11:39 5.2 °C 1.1 °C 1009 hPa Calm   1.6 km/h 74.5% 0 mm 130 W/m2
11:44 5.3 °C 1.1 °C 1009 hPa SW 0.3 km/h 3.2 km/h 74.1% 0 mm 141 W/m2
11:49 5.3 °C 1.2 °C 1009 hPa SW 0.3 km/h 4.8 km/h 74.6% 0 mm 149 W/m2
11:54 5.4 °C 1.2 °C 1009 hPa Calm   4.8 km/h 74% 0 mm 153 W/m2
11:59 5.5 °C 1.2 °C 1009 hPa Calm   4.8 km/h 74% 0 mm 155 W/m2
12:00 5.6 °C 1.1 °C 1008.7 hPa Calm   4.8 km/h 73% 0 mm 153 W/m2
12:09 5.6 °C 1.3 °C 1008.7 hPa SW 0.3 km/h 3.2 km/h 73.6% 0 mm 176 W/m2
12:14 5.7 °C 1.4 °C 1008.7 hPa Calm   3.2 km/h 74.1% 0 mm 176 W/m2
12:19 5.7 °C 1.4 °C 1008.7 hPa Calm   3.2 km/h 73.9% 0 mm 178 W/m2
12:24 5.7 °C 1.6 °C 1008.4 hPa Calm   3.2 km/h 74.8% 0 mm 181 W/m2
12:29 5.8 °C 1.7 °C 1008.4 hPa Calm   3.2 km/h 75.3% 0 mm 179 W/m2
12:34 5.8 °C 1.7 °C 1008.4 hPa WSW 0.8 km/h 8 km/h 74.8% 0 mm 169 W/m2
12:39 5.8 °C 1.6 °C 1008.4 hPa Calm   8 km/h 74% 0 mm 160 W/m2
12:44 5.8 °C 1.7 °C 1008.4 hPa WSW 0.3 km/h 8 km/h 74.4% 0 mm 160 W/m2
12:49 5.9 °C 1.7 °C 1008 hPa Calm   8 km/h 74.3% 0 mm 160 W/m2
12:54 5.9 °C 1.6 °C 1008 hPa WSW 0.2 km/h 8 km/h 73.6% 0 mm 158 W/m2
12:59 5.9 °C 1.7 °C 1008 hPa WSW 0.2 km/h 8 km/h 74% 0 mm 160 W/m2
13:04 5.9 °C 1.6 °C 1008 hPa Calm   8 km/h 73.3% 0 mm 160 W/m2
13:09 5.9 °C 1.6 °C 1008 hPa Calm     74% 0 mm 155 W/m2
13:14 5.9 °C 1.6 °C 1008 hPa Calm     74% 0 mm 144 W/m2
13:19 5.9 °C 1.7 °C 1008.4 hPa Calm     74% 0 mm 128 W/m2
13:24 5.9 °C 1.7 °C 1008.4 hPa Calm     74% 0 mm 123 W/m2
13:29 6 °C 1.7 °C 1008.4 hPa Calm     74% 0 mm 116 W/m2
13:34 5.9 °C 1.7 °C 1008.4 hPa Calm     74% 0 mm 111 W/m2
13:39 5.9 °C 1.7 °C 1008.4 hPa Calm     74% 0 mm 105 W/m2
13:44 6 °C 1.7 °C 1008.4 hPa Calm     74% 0 mm 100 W/m2
13:49 6 °C 1.8 °C 1008.4 hPa Calm     74.3% 0 mm 102 W/m2
13:54 6.1 °C 1.8 °C 1008.4 hPa Calm     74.2% 0 mm 118 W/m2
13:59 6.1 °C 1.7 °C 1008.4 hPa Calm     73.8% 0 mm 118 W/m2
14:04 6.1 °C 1.6 °C 1008.4 hPa Calm     73% 0 mm 107 W/m2
14:09 6.1 °C 1.6 °C 1008 hPa WSW 0.6 km/h 4.8 km/h 73% 0 mm 104 W/m2
14:14 6.2 °C 1.7 °C 1008.4 hPa Calm   4.8 km/h 73.1% 0 mm 104 W/m2
14:19 6.2 °C 1.9 °C 1008.4 hPa Calm   4.8 km/h 73.9% 0 mm 98 W/m2
14:24 6.2 °C 1.8 °C 1008.4 hPa WSW 0.5 km/h 4.8 km/h 73.3% 0 mm 98 W/m2
14:29 6.1 °C 1.8 °C 1008.4 hPa WSW 1.3 km/h 6.4 km/h 74% 0 mm 93 W/m2
14:34 6.2 °C 1.7 °C 1008.4 hPa Calm   6.4 km/h 73.3% 0 mm 77 W/m2
14:39 6.2 °C 1.7 °C 1008.4 hPa West 0.3 km/h 4.8 km/h 73% 0 mm 62 W/m2
14:44 6.2 °C 1.7 °C 1008.4 hPa NW 1.4 km/h 6.4 km/h 73% 0 mm 49 W/m2
14:49 6.1 °C 1.7 °C 1008.4 hPa Calm   6.4 km/h 73% 0 mm 54 W/m2
14:54 6.1 °C 1.8 °C 1008.4 hPa NW 0.5 km/h 6.4 km/h 73.8% 0 mm 62 W/m2
14:58 6.1 °C 1.8 °C 1008.4 hPa NW 1 km/h 6.4 km/h 74% 0 mm 62 W/m2
15:04 6 °C 1.7 °C 1008.4 hPa Calm   6.4 km/h 74% 0 mm 49 W/m2
15:09 6 °C 1.8 °C 1008.4 hPa Calm     74.6% 0 mm 49 W/m2
15:14 6 °C 1.9 °C 1008.4 hPa Calm     75% 0 mm 44 W/m2
15:19 5.9 °C 1.8 °C 1008.4 hPa NW 1 km/h 6.4 km/h 75% 0 mm 44 W/m2
15:24 5.9 °C 1.8 °C 1008.4 hPa NNW 3.4 km/h 8 km/h 75% 0 mm 39 W/m2
15:29 5.8 °C 1.7 °C 1008.7 hPa NNW 1 km/h 8 km/h 75% 0 mm 30 W/m2
15:33 5.7 °C 1.7 °C 1008.7 hPa NNW 1.1 km/h 9.7 km/h 75.5% 0 mm 32 W/m2
15:39 5.6 °C 1.7 °C 1008.7 hPa NW 1.8 km/h 9.7 km/h 76% 0 mm 33 W/m2
15:44 5.6 °C 1.7 °C 1008.7 hPa NW 1.8 km/h 9.7 km/h 76.3% 0 mm 25 W/m2
15:49 5.5 °C 1.8 °C 1008.7 hPa NNW 2.7 km/h 9.7 km/h 77% 0 mm 19 W/m2
15:54 5.4 °C 1.7 °C 1008.7 hPa NW 3.4 km/h 11.3 km/h 77% 0 mm 18 W/m2
15:59 5.3 °C 1.7 °C 1008.7 hPa NW 1.3 km/h 11.3 km/h 77.9% 0 mm 16 W/m2
16:00 5.2 °C 1.7 °C 1008.7 hPa Calm   11.3 km/h 78% 0 mm 14 W/m2
16:09 5.2 °C 1.7 °C 1008.7 hPa Calm   3.2 km/h 78% 0 mm 12 W/m2
16:14 5.1 °C 1.7 °C 1008.7 hPa NW 0.3 km/h 4.8 km/h 78.3% 0 mm 12 W/m2
16:19 5.1 °C 1.7 °C 1008.7 hPa Calm   4.8 km/h 79% 0 mm 12 W/m2
16:24 5 °C 1.7 °C 1008.7 hPa NW 1.8 km/h 9.7 km/h 79% 0 mm 7 W/m2
16:29 5 °C 1.8 °C 1008.7 hPa NW 1.9 km/h 9.7 km/h 79.8% 0 mm 0 W/m2
16:34 4.9 °C 1.8 °C 1008.7 hPa NW 1.9 km/h 9.7 km/h 80% 0 mm 0 W/m2
16:39 4.9 °C 1.9 °C 1008.7 hPa NW 2.3 km/h 9.7 km/h 81% 0 mm 5 W/m2
16:44 4.8 °C 1.9 °C 1008.7 hPa NW 0.5 km/h 9.7 km/h 81.3% 0 mm 5 W/m2
16:49 4.8 °C 2 °C 1008.7 hPa NW 1.1 km/h 9.7 km/h 82% 0 mm 0 W/m2
16:54 4.7 °C 1.9 °C 1008.7 hPa NE 2.3 km/h 9.7 km/h 82% 0 mm 0 W/m2
16:59 4.6 °C 1.8 °C 1008.4 hPa NNE 1.4 km/h 9.7 km/h 82.6% 0 mm 0 W/m2
17:04 4.4 °C 1.8 °C 1008.4 hPa NE 2.4 km/h 9.7 km/h 83% 0 mm 0 W/m2
17:09 4.3 °C 1.7 °C 1008.7 hPa NE 0.2 km/h 6.4 km/h 83.5% 0 mm 0 W/m2
17:14 4.2 °C 1.7 °C 1008.7 hPa NNE 1.1 km/h 6.4 km/h 84% 0 mm 0 W/m2
17:18 4.1 °C 1.6 °C 1009 hPa NNE 1.8 km/h 6.4 km/h 84.1% 0 mm 0 W/m2
17:30 3.8 °C 1.7 °C 1009 hPa NE 1.6 km/h 6.4 km/h 86% 0 mm 0 W/m2
18:00 3.4 °C 1.7 °C 1009.4 hPa Calm   8 km/h 88% 0 mm 0 W/m2
18:30 3.2 °C 1.6 °C 1009.4 hPa Calm     89% 0 mm 0 W/m2
19:00 3.2 °C 1.7 °C 1010 hPa NNE 1.6 km/h 8 km/h 90% 0 mm 0 W/m2
19:30 3.1 °C 1.6 °C 1010.4 hPa Calm   6.4 km/h 90% 0 mm 0 W/m2
20:04 3.1 °C 1.6 °C 1010.4 hPa Calm   6.4 km/h 90% 0 mm 0 W/m2
20:09 3.1 °C 1.6 °C 1010.7 hPa NNE 0.6 km/h 4.8 km/h 90% 0 mm 0 W/m2
20:14 3.1 °C 1.6 °C 1010.7 hPa Calm   4.8 km/h 90% 0 mm 0 W/m2
20:19 3.1 °C 1.6 °C 1010.7 hPa Calm   4.8 km/h 90% 0 mm 0 W/m2
20:24 3.1 °C 1.6 °C 1010.7 hPa Calm   4.8 km/h 90% 0 mm 0 W/m2
20:29 3.1 °C 1.6 °C 1010.7 hPa Calm   4.8 km/h 90% 0 mm 0 W/m2
20:34 3.1 °C 1.6 °C 1010.7 hPa Calm   4.8 km/h 90% 0 mm 0 W/m2
20:39 3.1 °C 1.7 °C 1010.7 hPa Calm     90% 0 mm 0 W/m2
20:44 3.2 °C 1.7 °C 1010.7 hPa Calm     90% 0 mm 0 W/m2
20:49 3.2 °C 1.7 °C 1011.1 hPa Calm     90% 0 mm 0 W/m2
20:54 3.3 °C 1.8 °C 1010.7 hPa Calm     90% 0 mm 0 W/m2
20:59 3.3 °C 1.8 °C 1010.7 hPa Calm     90% 0 mm 0 W/m2
21:04 3.3 °C 1.8 °C 1010.7 hPa Calm     89.6% 0 mm 0 W/m2
21:09 3.3 °C 1.7 °C 1011.1 hPa Calm     89% 0 mm 0 W/m2
21:14 3.3 °C 1.7 °C 1011.1 hPa Calm     89% 0 mm 0 W/m2
21:19 3.3 °C 1.7 °C 1011.1 hPa Calm     89% 0 mm 0 W/m2
21:24 3.3 °C 1.7 °C 1011.1 hPa Calm     89% 0 mm 0 W/m2
21:29 3.2 °C 1.6 °C 1011.1 hPa NNE 0.5 km/h 6.4 km/h 89% 0 mm 0 W/m2
21:34 3.2 °C 1.6 °C 1011.1 hPa NNE 0.3 km/h 6.4 km/h 89% 0 mm 0 W/m2
21:44 3.2 °C 1.5 °C 1011.4 hPa NE 0.5 km/h 8 km/h 89% 0 mm 0 W/m2
21:49 3.1 °C 1.5 °C 1011.4 hPa Calm   8 km/h 89% 0 mm 0 W/m2
21:54 3.1 °C 1.6 °C 1011.4 hPa NE 0.2 km/h 8 km/h 89.6% 0 mm 0 W/m2
21:59 3.1 °C 1.5 °C 1011.4 hPa NE 0.3 km/h 8 km/h 89.5% 0 mm 0 W/m2
22:04 3.1 °C 1.5 °C 1011.4 hPa NNE 0.2 km/h 8 km/h 89.4% 0 mm 0 W/m2
22:09 3.1 °C 1.6 °C 1011.4 hPa NNE 0.5 km/h 6.4 km/h 90% 0 mm 0 W/m2
22:14 3 °C 1.6 °C 1011.4 hPa NNE 1.6 km/h 6.4 km/h 90% 0 mm 0 W/m2
22:19 3 °C 1.5 °C 1011.7 hPa NNE 0.6 km/h 6.4 km/h 90% 0 mm 0 W/m2
22:24 3 °C 1.5 °C 1011.7 hPa NNE 0.8 km/h 6.4 km/h 90% 0 mm 0 W/m2
22:29 3 °C 1.5 °C 1011.7 hPa NNE 0.8 km/h 6.4 km/h 90% 0 mm 0 W/m2
22:34 3 °C 1.5 °C 1011.7 hPa NNE 1.1 km/h 6.4 km/h 90% 0 mm 0 W/m2
22:39 2.9 °C 1.4 °C 1011.7 hPa Calm   4.8 km/h 90% 0 mm 0 W/m2
22:44 2.9 °C 1.4 °C 1011.7 hPa NNE 0.5 km/h 4.8 km/h 90% 0 mm 0 W/m2
22:49 2.9 °C 1.4 °C 1011.7 hPa NNE 2.1 km/h 6.4 km/h 90% 0 mm 0 W/m2
22:54 2.9 °C 1.4 °C 1011.7 hPa NNE 1.9 km/h 6.4 km/h 90% 0 mm 0 W/m2
22:59 2.9 °C 1.4 °C 1012.1 hPa NNE 1.1 km/h 6.4 km/h 90% 0 mm 0 W/m2
23:04 2.9 °C 1.4 °C 1011.7 hPa Calm     90% 0 mm 0 W/m2
23:09 2.9 °C 1.4 °C 1011.7 hPa Calm     90% 0 mm 0 W/m2
23:14 2.9 °C 1.4 °C 1011.7 hPa Calm   1.6 km/h 90% 0 mm 0 W/m2
23:19 2.9 °C 1.4 °C 1011.7 hPa NNW 2.9 km/h 14.5 km/h 90% 0 mm 0 W/m2
23:24 2.9 °C 1.4 °C 1012.1 hPa NNW 0.2 km/h 14.5 km/h 90% 0 mm 0 W/m2
23:29 2.9 °C 1.5 °C 1012.1 hPa NNW 2.1 km/h 14.5 km/h 90% 0 mm 0 W/m2
23:34 2.9 °C 1.4 °C 1012.1 hPa NNW 3.5 km/h 14.5 km/h 90% 0 mm 0 W/m2
23:39 2.9 °C 1.5 °C 1012.1 hPa NNW 2.4 km/h 8 km/h 90% 0 mm 0 W/m2
23:44 2.9 °C 1.5 °C 1012.1 hPa NNW 1.6 km/h 8 km/h 90% 0 mm 0 W/m2
23:49 2.9 °C 1.4 °C 1012.1 hPa NNW 0.6 km/h 8 km/h 90% 0 mm 0 W/m2
23:54 2.9 °C 1.4 °C 1012.1 hPa NNW 1.1 km/h 8 km/h 90% 0 mm 0 W/m2
23:59 2.9 °C 1.5 °C 1012.1 hPa NNW 1.4 km/h 8 km/h 90% 0 mm 0 W/m2
Hartford County Weather
Compliments of Weather Underground - 4 mb